sensor_id;sensor_type;location;lat;lon;timestamp;P1;durP1;ratioP1;P2;durP2;ratioP2
75665;SDS011;64263;49.492;11.056;2022-11-15T11:21:37;4.78;;;1.70;;
75665;SDS011;64263;49.492;11.056;2022-11-15T11:24:11;4.03;;;1.55;;
75665;SDS011;64263;49.492;11.056;2022-11-15T11:26:55;3.95;;;1.42;;
75665;SDS011;64263;49.492;11.056;2022-11-15T11:35:20;3.65;;;1.30;;
75665;SDS011;64263;49.492;11.056;2022-11-15T11:49:25;3.55;;;1.48;;
75665;SDS011;64263;49.492;11.056;2022-11-15T11:54:46;3.78;;;1.38;;
75665;SDS011;64263;49.492;11.056;2022-11-15T11:57:29;5.07;;;1.50;;
75665;SDS011;64263;49.492;11.056;2022-11-15T12:05:44;4.35;;;1.40;;
75665;SDS011;64263;49.492;11.056;2022-11-15T12:08:20;4.43;;;1.50;;
75665;SDS011;64263;49.492;11.056;2022-11-15T12:11:07;3.90;;;1.35;;
75665;SDS011;64263;49.492;11.056;2022-11-15T12:13:37;5.00;;;1.38;;
75665;SDS011;64263;49.492;11.056;2022-11-15T12:18:49;3.20;;;1.33;;
75665;SDS011;64263;49.492;11.056;2022-11-15T12:23:47;3.70;;;1.50;;
75665;SDS011;64263;49.492;11.056;2022-11-15T12:26:19;2.63;;;1.20;;
75665;SDS011;64263;49.492;11.056;2022-11-15T12:28:54;2.40;;;1.13;;
75665;SDS011;64263;49.492;11.056;2022-11-15T12:34:13;3.65;;;1.20;;
75665;SDS011;64263;49.492;11.056;2022-11-15T12:36:45;2.55;;;1.20;;
75665;SDS011;64263;49.492;11.056;2022-11-15T12:39:13;6.28;;;1.30;;
75665;SDS011;64263;49.492;11.056;2022-11-15T12:41:40;4.95;;;1.23;;
75665;SDS011;64263;49.492;11.056;2022-11-15T12:47:01;3.38;;;1.23;;
75665;SDS011;64263;49.492;11.056;2022-11-15T13:02:44;4.05;;;1.75;;
75665;SDS011;64263;49.492;11.056;2022-11-15T13:18:28;1.75;;;1.00;;
75665;SDS011;64263;49.492;11.056;2022-11-15T13:20:57;3.42;;;1.30;;
75665;SDS011;64263;49.492;11.056;2022-11-15T13:23:23;4.60;;;1.17;;
75665;SDS011;64263;49.492;11.056;2022-11-15T13:30:52;5.45;;;1.38;;
75665;SDS011;64263;49.492;11.056;2022-11-15T13:33:25;3.25;;;1.20;;
75665;SDS011;64263;49.492;11.056;2022-11-15T13:36:02;4.35;;;1.27;;
75665;SDS011;64263;49.492;11.056;2022-11-15T13:38:32;4.40;;;1.60;;
75665;SDS011;64263;49.492;11.056;2022-11-15T13:41:10;3.65;;;1.48;;
75665;SDS011;64263;49.492;11.056;2022-11-15T13:43:43;5.15;;;1.48;;
75665;SDS011;64263;49.492;11.056;2022-11-15T13:46:25;3.67;;;1.23;;
75665;SDS011;64263;49.492;11.056;2022-11-15T13:56:44;5.17;;;1.60;;
75665;SDS011;64263;49.492;11.056;2022-11-15T13:59:15;3.92;;;1.38;;
75665;SDS011;64263;49.492;11.056;2022-11-15T14:01:52;3.75;;;1.40;;
75665;SDS011;64263;49.492;11.056;2022-11-15T14:04:20;3.92;;;1.20;;
75665;SDS011;64263;49.492;11.056;2022-11-15T14:06:48;5.65;;;1.40;;
75665;SDS011;64263;49.492;11.056;2022-11-15T14:09:29;5.13;;;1.55;;
75665;SDS011;64263;49.492;11.056;2022-11-15T14:12:20;6.47;;;1.50;;
75665;SDS011;64263;49.492;11.056;2022-11-15T14:14:58;4.18;;;1.90;;
75665;SDS011;64263;49.492;11.056;2022-11-15T14:19:53;5.60;;;1.30;;
75665;SDS011;64263;49.492;11.056;2022-11-15T14:22:25;5.90;;;1.63;;
75665;SDS011;64263;49.492;11.056;2022-11-15T14:25:07;8.00;;;1.63;;
75665;SDS011;64263;49.492;11.056;2022-11-15T14:27:39;3.05;;;1.35;;
75665;SDS011;64263;49.492;11.056;2022-11-15T14:30:06;7.15;;;1.60;;
75665;SDS011;64263;49.492;11.056;2022-11-15T14:32:45;5.60;;;2.03;;
75665;SDS011;64263;49.492;11.056;2022-11-15T14:35:16;6.18;;;1.50;;
75665;SDS011;64263;49.492;11.056;2022-11-15T14:37:44;5.07;;;1.60;;
75665;SDS011;64263;49.492;11.056;2022-11-15T14:40:12;6.72;;;1.67;;
75665;SDS011;64263;49.492;11.056;2022-11-15T14:42:39;5.65;;;1.80;;
75665;SDS011;64263;49.492;11.056;2022-11-15T14:45:15;3.92;;;1.55;;
75665;SDS011;64263;49.492;11.056;2022-11-15T14:47:43;3.97;;;1.50;;
75665;SDS011;64263;49.492;11.056;2022-11-15T14:50:15;3.33;;;1.58;;
75665;SDS011;64263;49.492;11.056;2022-11-15T14:52:42;5.60;;;1.70;;
75665;SDS011;64263;49.492;11.056;2022-11-15T14:55:19;4.10;;;1.70;;
75665;SDS011;64263;49.492;11.056;2022-11-15T14:57:48;4.30;;;1.75;;
75665;SDS011;64263;49.492;11.056;2022-11-15T15:00:14;6.43;;;1.83;;
75665;SDS011;64263;49.492;11.056;2022-11-15T15:02:40;7.57;;;2.33;;
75665;SDS011;64263;49.492;11.056;2022-11-15T15:05:12;4.20;;;1.70;;
75665;SDS011;64263;49.492;11.056;2022-11-15T15:07:40;6.73;;;1.93;;
75665;SDS011;64263;49.492;11.056;2022-11-15T15:10:06;4.68;;;1.88;;
75665;SDS011;64263;49.492;11.056;2022-11-15T15:12:31;6.68;;;2.13;;
75665;SDS011;64263;49.492;11.056;2022-11-15T15:14:58;7.90;;;1.90;;
75665;SDS011;64263;49.492;11.056;2022-11-15T15:17:23;5.70;;;2.05;;
75665;SDS011;64263;49.492;11.056;2022-11-15T15:19:48;5.75;;;1.83;;
75665;SDS011;64263;49.492;11.056;2022-11-15T15:22:16;5.97;;;2.17;;
75665;SDS011;64263;49.492;11.056;2022-11-15T15:24:43;5.50;;;2.03;;
75665;SDS011;64263;49.492;11.056;2022-11-15T15:27:10;4.80;;;2.00;;
75665;SDS011;64263;49.492;11.056;2022-11-15T15:29:36;8.30;;;2.15;;
75665;SDS011;64263;49.492;11.056;2022-11-15T15:32:02;17.60;;;3.05;;
75665;SDS011;64263;49.492;11.056;2022-11-15T15:34:27;6.45;;;2.63;;
75665;SDS011;64263;49.492;11.056;2022-11-15T15:37:11;7.32;;;2.50;;
75665;SDS011;64263;49.492;11.056;2022-11-15T15:39:48;9.25;;;2.25;;
75665;SDS011;64263;49.492;11.056;2022-11-15T15:42:21;8.73;;;2.97;;
75665;SDS011;64263;49.492;11.056;2022-11-15T15:44:48;6.95;;;2.60;;
75665;SDS011;64263;49.492;11.056;2022-11-15T15:47:21;5.32;;;2.22;;
75665;SDS011;64263;49.492;11.056;2022-11-15T15:49:48;9.20;;;3.37;;
75665;SDS011;64263;49.492;11.056;2022-11-15T15:52:14;10.18;;;2.72;;
75665;SDS011;64263;49.492;11.056;2022-11-15T15:54:40;16.98;;;3.45;;
75665;SDS011;64263;49.492;11.056;2022-11-15T15:57:06;8.55;;;2.88;;
75665;SDS011;64263;49.492;11.056;2022-11-15T15:59:33;9.27;;;2.60;;
75665;SDS011;64263;49.492;11.056;2022-11-15T16:01:59;7.15;;;2.67;;
75665;SDS011;64263;49.492;11.056;2022-11-15T16:04:24;6.72;;;2.28;;
75665;SDS011;64263;49.492;11.056;2022-11-15T16:06:50;8.68;;;2.50;;
75665;SDS011;64263;49.492;11.056;2022-11-15T16:09:16;5.50;;;2.10;;
75665;SDS011;64263;49.492;11.056;2022-11-15T16:11:46;10.27;;;2.70;;
75665;SDS011;64263;49.492;11.056;2022-11-15T16:14:12;6.47;;;2.83;;
75665;SDS011;64263;49.492;11.056;2022-11-15T16:16:37;8.20;;;3.10;;
75665;SDS011;64263;49.492;11.056;2022-11-15T16:19:03;9.38;;;3.13;;
75665;SDS011;64263;49.492;11.056;2022-11-15T16:21:29;13.13;;;3.40;;
75665;SDS011;64263;49.492;11.056;2022-11-15T16:23:55;22.00;;;3.70;;
75665;SDS011;64263;49.492;11.056;2022-11-15T16:26:21;12.45;;;3.60;;
75665;SDS011;64263;49.492;11.056;2022-11-15T16:28:51;13.75;;;2.95;;
75665;SDS011;64263;49.492;11.056;2022-11-15T16:31:17;8.85;;;3.20;;
75665;SDS011;64263;49.492;11.056;2022-11-15T16:33:43;15.73;;;3.08;;
75665;SDS011;64263;49.492;11.056;2022-11-15T16:36:19;8.00;;;2.85;;
75665;SDS011;64263;49.492;11.056;2022-11-15T16:38:45;5.57;;;2.38;;
75665;SDS011;64263;49.492;11.056;2022-11-15T16:41:10;9.82;;;2.78;;
75665;SDS011;64263;49.492;11.056;2022-11-15T16:43:36;7.57;;;3.00;;
75665;SDS011;64263;49.492;11.056;2022-11-15T16:48:59;11.25;;;3.85;;
75665;SDS011;64263;49.492;11.056;2022-11-15T16:51:25;12.60;;;4.00;;
75665;SDS011;64263;49.492;11.056;2022-11-15T16:53:50;10.98;;;4.05;;
75665;SDS011;64263;49.492;11.056;2022-11-15T16:56:26;9.40;;;3.85;;
75665;SDS011;64263;49.492;11.056;2022-11-15T16:58:54;10.23;;;3.97;;
75665;SDS011;64263;49.492;11.056;2022-11-15T17:01:22;11.18;;;4.88;;
75665;SDS011;64263;49.492;11.056;2022-11-15T17:03:49;16.63;;;5.28;;
75665;SDS011;64263;49.492;11.056;2022-11-15T17:06:15;10.43;;;4.18;;
75665;SDS011;64263;49.492;11.056;2022-11-15T17:08:41;16.08;;;3.67;;
75665;SDS011;64263;49.492;11.056;2022-11-15T17:11:07;11.15;;;3.90;;
75665;SDS011;64263;49.492;11.056;2022-11-15T17:13:33;9.15;;;3.40;;
75665;SDS011;64263;49.492;11.056;2022-11-15T17:16:09;7.43;;;2.60;;
75665;SDS011;64263;49.492;11.056;2022-11-15T17:18:38;9.82;;;4.30;;
75665;SDS011;64263;49.492;11.056;2022-11-15T17:21:05;8.05;;;3.47;;
75665;SDS011;64263;49.492;11.056;2022-11-15T17:23:37;13.35;;;3.97;;
75665;SDS011;64263;49.492;11.056;2022-11-15T17:26:03;13.95;;;4.72;;
75665;SDS011;64263;49.492;11.056;2022-11-15T17:28:29;13.65;;;4.80;;
75665;SDS011;64263;49.492;11.056;2022-11-15T17:30:58;10.88;;;4.35;;
75665;SDS011;64263;49.492;11.056;2022-11-15T17:33:24;10.30;;;3.95;;
75665;SDS011;64263;49.492;11.056;2022-11-15T17:35:56;10.48;;;3.47;;
75665;SDS011;64263;49.492;11.056;2022-11-15T17:38:23;7.93;;;3.15;;
75665;SDS011;64263;49.492;11.056;2022-11-15T17:40:58;10.45;;;2.97;;
75665;SDS011;64263;49.492;11.056;2022-11-15T17:43:25;9.43;;;3.15;;
75665;SDS011;64263;49.492;11.056;2022-11-15T17:45:50;7.28;;;2.80;;
75665;SDS011;64263;49.492;11.056;2022-11-15T17:48:16;7.18;;;2.90;;
75665;SDS011;64263;49.492;11.056;2022-11-15T17:50:41;7.63;;;3.05;;
75665;SDS011;64263;49.492;11.056;2022-11-15T17:53:06;9.57;;;3.00;;
75665;SDS011;64263;49.492;11.056;2022-11-15T17:55:32;9.18;;;2.72;;
75665;SDS011;64263;49.492;11.056;2022-11-15T17:57:57;7.72;;;3.22;;
75665;SDS011;64263;49.492;11.056;2022-11-15T18:00:23;7.88;;;2.75;;
75665;SDS011;64263;49.492;11.056;2022-11-15T18:02:48;11.70;;;3.38;;
75665;SDS011;64263;49.492;11.056;2022-11-15T18:05:14;8.77;;;3.22;;
75665;SDS011;64263;49.492;11.056;2022-11-15T18:07:40;8.18;;;2.97;;
75665;SDS011;64263;49.492;11.056;2022-11-15T18:10:05;5.85;;;2.45;;
75665;SDS011;64263;49.492;11.056;2022-11-15T18:12:31;9.35;;;3.20;;
75665;SDS011;64263;49.492;11.056;2022-11-15T18:14:56;8.32;;;2.83;;
75665;SDS011;64263;49.492;11.056;2022-11-15T18:17:22;8.45;;;2.90;;
75665;SDS011;64263;49.492;11.056;2022-11-15T18:19:47;7.88;;;2.20;;
75665;SDS011;64263;49.492;11.056;2022-11-15T18:22:13;6.25;;;2.40;;
75665;SDS011;64263;49.492;11.056;2022-11-15T18:24:38;8.38;;;2.80;;
75665;SDS011;64263;49.492;11.056;2022-11-15T18:27:04;9.18;;;2.53;;
75665;SDS011;64263;49.492;11.056;2022-11-15T18:29:30;6.97;;;2.88;;
75665;SDS011;64263;49.492;11.056;2022-11-15T18:31:56;8.43;;;3.33;;
75665;SDS011;64263;49.492;11.056;2022-11-15T18:34:22;6.20;;;3.13;;
75665;SDS011;64263;49.492;11.056;2022-11-15T18:36:50;9.30;;;3.13;;
75665;SDS011;64263;49.492;11.056;2022-11-15T18:39:16;7.05;;;3.15;;
75665;SDS011;64263;49.492;11.056;2022-11-15T18:41:43;6.53;;;2.58;;
75665;SDS011;64263;49.492;11.056;2022-11-15T18:44:09;7.07;;;2.30;;
75665;SDS011;64263;49.492;11.056;2022-11-15T18:46:34;8.07;;;2.50;;
75665;SDS011;64263;49.492;11.056;2022-11-15T18:49:00;6.97;;;2.80;;
75665;SDS011;64263;49.492;11.056;2022-11-15T18:51:27;7.65;;;2.65;;
75665;SDS011;64263;49.492;11.056;2022-11-15T18:53:54;9.25;;;2.83;;
75665;SDS011;64263;49.492;11.056;2022-11-15T18:56:22;7.68;;;2.70;;
75665;SDS011;64263;49.492;11.056;2022-11-15T18:58:49;6.82;;;2.85;;
75665;SDS011;64263;49.492;11.056;2022-11-15T19:01:18;9.15;;;3.13;;
75665;SDS011;64263;49.492;11.056;2022-11-15T19:03:47;6.40;;;2.40;;
75665;SDS011;64263;49.492;11.056;2022-11-15T19:06:18;7.32;;;2.63;;
75665;SDS011;64263;49.492;11.056;2022-11-15T19:08:53;8.40;;;2.85;;
75665;SDS011;64263;49.492;11.056;2022-11-15T19:11:26;6.72;;;2.58;;
75665;SDS011;64263;49.492;11.056;2022-11-15T19:13:54;7.30;;;3.28;;
75665;SDS011;64263;49.492;11.056;2022-11-15T19:16:20;6.07;;;2.55;;
75665;SDS011;64263;49.492;11.056;2022-11-15T19:18:46;7.68;;;3.00;;
75665;SDS011;64263;49.492;11.056;2022-11-15T19:21:12;8.40;;;2.92;;
75665;SDS011;64263;49.492;11.056;2022-11-15T19:23:39;9.77;;;2.80;;
75665;SDS011;64263;49.492;11.056;2022-11-15T19:26:08;6.55;;;2.85;;
75665;SDS011;64263;49.492;11.056;2022-11-15T19:28:35;5.60;;;2.55;;
75665;SDS011;64263;49.492;11.056;2022-11-15T19:31:08;8.75;;;3.42;;
75665;SDS011;64263;49.492;11.056;2022-11-15T19:33:38;13.35;;;2.80;;
75665;SDS011;64263;49.492;11.056;2022-11-15T19:36:12;8.05;;;2.80;;
75665;SDS011;64263;49.492;11.056;2022-11-15T19:38:39;6.38;;;2.60;;
75665;SDS011;64263;49.492;11.056;2022-11-15T19:41:06;8.25;;;2.90;;
75665;SDS011;64263;49.492;11.056;2022-11-15T19:43:34;9.05;;;3.40;;
75665;SDS011;64263;49.492;11.056;2022-11-15T19:46:01;6.85;;;2.90;;
75665;SDS011;64263;49.492;11.056;2022-11-15T19:48:28;7.60;;;2.75;;
75665;SDS011;64263;49.492;11.056;2022-11-15T19:50:58;8.75;;;3.17;;
75665;SDS011;64263;49.492;11.056;2022-11-15T19:53:28;7.40;;;3.10;;
75665;SDS011;64263;49.492;11.056;2022-11-15T19:55:55;12.18;;;3.15;;
75665;SDS011;64263;49.492;11.056;2022-11-15T19:58:39;10.30;;;3.65;;
75665;SDS011;64263;49.492;11.056;2022-11-15T20:03:40;7.90;;;3.17;;
75665;SDS011;64263;49.492;11.056;2022-11-15T20:06:09;10.57;;;3.17;;
75665;SDS011;64263;49.492;11.056;2022-11-15T20:08:37;10.90;;;3.95;;
75665;SDS011;64263;49.492;11.056;2022-11-15T20:11:03;10.00;;;3.95;;
75665;SDS011;64263;49.492;11.056;2022-11-15T20:13:29;12.68;;;4.25;;
75665;SDS011;64263;49.492;11.056;2022-11-15T20:15:55;10.60;;;3.75;;
75665;SDS011;64263;49.492;11.056;2022-11-15T20:18:21;7.90;;;3.33;;
75665;SDS011;64263;49.492;11.056;2022-11-15T20:20:49;10.13;;;3.75;;
75665;SDS011;64263;49.492;11.056;2022-11-15T20:23:14;10.85;;;3.90;;
75665;SDS011;64263;49.492;11.056;2022-11-15T20:25:44;11.50;;;4.00;;
75665;SDS011;64263;49.492;11.056;2022-11-15T20:28:14;10.40;;;3.72;;
75665;SDS011;64263;49.492;11.056;2022-11-15T20:30:45;10.55;;;3.92;;
75665;SDS011;64263;49.492;11.056;2022-11-15T20:33:11;8.70;;;3.20;;
75665;SDS011;64263;49.492;11.056;2022-11-15T20:35:38;8.65;;;3.40;;
75665;SDS011;64263;49.492;11.056;2022-11-15T20:38:05;10.13;;;4.00;;
75665;SDS011;64263;49.492;11.056;2022-11-15T20:40:31;10.18;;;3.85;;
75665;SDS011;64263;49.492;11.056;2022-11-15T20:42:57;11.48;;;3.55;;
75665;SDS011;64263;49.492;11.056;2022-11-15T20:45:22;8.52;;;3.63;;
75665;SDS011;64263;49.492;11.056;2022-11-15T20:47:48;13.07;;;4.38;;
75665;SDS011;64263;49.492;11.056;2022-11-15T20:50:13;19.80;;;6.78;;
75665;SDS011;64263;49.492;11.056;2022-11-15T20:52:39;16.02;;;5.53;;
75665;SDS011;64263;49.492;11.056;2022-11-15T20:55:04;11.80;;;3.63;;
75665;SDS011;64263;49.492;11.056;2022-11-15T20:57:30;8.93;;;3.83;;
75665;SDS011;64263;49.492;11.056;2022-11-15T20:59:56;8.57;;;4.05;;
75665;SDS011;64263;49.492;11.056;2022-11-15T21:02:21;11.32;;;3.63;;
75665;SDS011;64263;49.492;11.056;2022-11-15T21:04:47;10.88;;;3.83;;
75665;SDS011;64263;49.492;11.056;2022-11-15T21:07:12;13.50;;;4.80;;
75665;SDS011;64263;49.492;11.056;2022-11-15T21:09:37;11.40;;;3.95;;
75665;SDS011;64263;49.492;11.056;2022-11-15T21:12:03;11.98;;;4.00;;
75665;SDS011;64263;49.492;11.056;2022-11-15T21:14:29;11.90;;;4.50;;
75665;SDS011;64263;49.492;11.056;2022-11-15T21:16:54;10.55;;;4.63;;
75665;SDS011;64263;49.492;11.056;2022-11-15T21:19:20;12.63;;;3.60;;
75665;SDS011;64263;49.492;11.056;2022-11-15T21:21:45;12.73;;;4.07;;
75665;SDS011;64263;49.492;11.056;2022-11-15T21:24:11;11.55;;;4.05;;
75665;SDS011;64263;49.492;11.056;2022-11-15T21:26:36;8.68;;;3.40;;
75665;SDS011;64263;49.492;11.056;2022-11-15T21:29:02;11.35;;;4.15;;
75665;SDS011;64263;49.492;11.056;2022-11-15T21:31:28;8.68;;;3.65;;
75665;SDS011;64263;49.492;11.056;2022-11-15T21:33:54;10.57;;;4.13;;
75665;SDS011;64263;49.492;11.056;2022-11-15T21:36:19;12.30;;;4.53;;
75665;SDS011;64263;49.492;11.056;2022-11-15T21:38:45;11.77;;;4.30;;
75665;SDS011;64263;49.492;11.056;2022-11-15T21:41:10;11.23;;;3.97;;
75665;SDS011;64263;49.492;11.056;2022-11-15T21:43:36;11.38;;;3.95;;
75665;SDS011;64263;49.492;11.056;2022-11-15T21:46:02;10.88;;;4.05;;
75665;SDS011;64263;49.492;11.056;2022-11-15T21:48:30;9.20;;;3.75;;
75665;SDS011;64263;49.492;11.056;2022-11-15T21:50:57;9.95;;;4.10;;
75665;SDS011;64263;49.492;11.056;2022-11-15T21:53:24;10.70;;;4.00;;
75665;SDS011;64263;49.492;11.056;2022-11-15T21:55:51;10.52;;;3.72;;
75665;SDS011;64263;49.492;11.056;2022-11-15T21:58:16;10.90;;;3.55;;
75665;SDS011;64263;49.492;11.056;2022-11-15T22:00:43;10.50;;;3.63;;
75665;SDS011;64263;49.492;11.056;2022-11-15T22:03:08;8.55;;;3.58;;
75665;SDS011;64263;49.492;11.056;2022-11-15T22:05:35;9.13;;;3.20;;
75665;SDS011;64263;49.492;11.056;2022-11-15T22:08:01;10.07;;;3.90;;
75665;SDS011;64263;49.492;11.056;2022-11-15T22:10:26;9.10;;;3.50;;
75665;SDS011;64263;49.492;11.056;2022-11-15T22:12:52;9.80;;;3.67;;
75665;SDS011;64263;49.492;11.056;2022-11-15T22:15:17;8.70;;;3.25;;
75665;SDS011;64263;49.492;11.056;2022-11-15T22:17:43;10.43;;;3.38;;
75665;SDS011;64263;49.492;11.056;2022-11-15T22:20:08;8.60;;;3.60;;
75665;SDS011;64263;49.492;11.056;2022-11-15T22:22:34;9.77;;;3.15;;
75665;SDS011;64263;49.492;11.056;2022-11-15T22:25:00;6.28;;;2.80;;
75665;SDS011;64263;49.492;11.056;2022-11-15T22:27:25;8.40;;;2.97;;
75665;SDS011;64263;49.492;11.056;2022-11-15T22:29:51;9.88;;;2.95;;
75665;SDS011;64263;49.492;11.056;2022-11-15T22:32:16;7.25;;;2.83;;
75665;SDS011;64263;49.492;11.056;2022-11-15T22:34:41;8.35;;;3.38;;
75665;SDS011;64263;49.492;11.056;2022-11-15T22:37:07;8.63;;;3.20;;
75665;SDS011;64263;49.492;11.056;2022-11-15T22:39:32;11.02;;;3.10;;
75665;SDS011;64263;49.492;11.056;2022-11-15T22:41:58;9.80;;;3.17;;
75665;SDS011;64263;49.492;11.056;2022-11-15T22:44:23;8.02;;;3.05;;
75665;SDS011;64263;49.492;11.056;2022-11-15T22:46:49;10.05;;;3.33;;
75665;SDS011;64263;49.492;11.056;2022-11-15T22:49:14;7.95;;;2.95;;
75665;SDS011;64263;49.492;11.056;2022-11-15T22:51:40;9.35;;;3.60;;
75665;SDS011;64263;49.492;11.056;2022-11-15T22:54:05;9.45;;;3.03;;
75665;SDS011;64263;49.492;11.056;2022-11-15T22:56:31;8.50;;;3.28;;
75665;SDS011;64263;49.492;11.056;2022-11-15T22:58:56;9.10;;;3.17;;
75665;SDS011;64263;49.492;11.056;2022-11-15T23:01:22;12.18;;;3.80;;
75665;SDS011;64263;49.492;11.056;2022-11-15T23:03:47;10.80;;;3.35;;
75665;SDS011;64263;49.492;11.056;2022-11-15T23:06:13;7.93;;;3.40;;
75665;SDS011;64263;49.492;11.056;2022-11-15T23:08:38;12.15;;;5.15;;
75665;SDS011;64263;49.492;11.056;2022-11-15T23:11:04;14.80;;;4.45;;
75665;SDS011;64263;49.492;11.056;2022-11-15T23:13:30;9.77;;;3.75;;
75665;SDS011;64263;49.492;11.056;2022-11-15T23:16:04;17.23;;;3.67;;
75665;SDS011;64263;49.492;11.056;2022-11-15T23:18:32;10.63;;;3.00;;
75665;SDS011;64263;49.492;11.056;2022-11-15T23:23:39;9.27;;;3.60;;
75665;SDS011;64263;49.492;11.056;2022-11-15T23:26:05;7.18;;;3.08;;
75665;SDS011;64263;49.492;11.056;2022-11-15T23:28:32;6.53;;;2.75;;
75665;SDS011;64263;49.492;11.056;2022-11-15T23:31:02;6.93;;;2.67;;
75665;SDS011;64263;49.492;11.056;2022-11-15T23:33:29;6.72;;;2.88;;
75665;SDS011;64263;49.492;11.056;2022-11-15T23:35:54;7.65;;;2.63;;
75665;SDS011;64263;49.492;11.056;2022-11-15T23:38:20;9.70;;;3.55;;
75665;SDS011;64263;49.492;11.056;2022-11-15T23:40:52;8.05;;;3.28;;
75665;SDS011;64263;49.492;11.056;2022-11-15T23:43:19;7.75;;;3.28;;
75665;SDS011;64263;49.492;11.056;2022-11-15T23:45:45;7.65;;;3.10;;
75665;SDS011;64263;49.492;11.056;2022-11-15T23:48:11;6.78;;;3.03;;
75665;SDS011;64263;49.492;11.056;2022-11-15T23:50:37;7.95;;;3.42;;
75665;SDS011;64263;49.492;11.056;2022-11-15T23:53:02;9.20;;;3.08;;
75665;SDS011;64263;49.492;11.056;2022-11-15T23:55:29;7.57;;;3.35;;
75665;SDS011;64263;49.492;11.056;2022-11-15T23:57:54;8.23;;;3.33;;
